Sy Augusta — PD5307 — position and weather

sailwx.info

Track history (hours):
 
Tides and Currents Weather Stations Pressure Air Temp Water Temp Dewpoint Dewpoint Depression Visibility Wind Speed Wind Dir Waves Ship Positions

Sy Augusta

Last reported at 2017-Oct-04 07:16 UTC. Time now 2017-Nov-22 15:05 UTC.
Position N 37°07' W 008°32'.
Warning: this ship's position is 49 days out of date.

Length 14 m.

Type: Pleasure craft. MMSI: 244030920.

Date/timePositionNaut miles runAvg speedWind from/ knotsBaromVisibWave heightAir tempDewpointWater temp
2017-Oct-04 07:16N 37°07' W 008°32'0 0.0
2017-Oct-04 06:55N 37°07' W 008°32'0 0.0
2017-Oct-04 06:25N 37°07' W 008°32'  
2017-Sep-27 22:18N 37°07' W 008°32'0 0.0
2017-Sep-27 22:00N 37°07' W 008°32'0 0.0
2017-Sep-27 21:30N 37°07' W 008°32'0 0.0
2017-Sep-27 20:51N 37°07' W 008°32'0 0.0
2017-Sep-27 20:27N 37°07' W 008°32'0 0.0
2017-Sep-27 19:57N 37°07' W 008°32'0 0.0
2017-Sep-27 19:30N 37°07' W 008°32'0 0.0
2017-Sep-27 19:00N 37°07' W 008°32'0 0.0
2017-Sep-27 18:27N 37°07' W 008°32'1 0.0
2017-Sep-25 16:03N 37°07' W 008°31'0 0.0
2017-Sep-25 16:00N 37°07' W 008°31'0 0.0
2017-Sep-25 15:30N 37°07' W 008°31'0 0.0
2017-Sep-25 14:54N 37°07' W 008°31'1 1.8
2017-Sep-25 14:30N 37°07' W 008°32'0 0.2
2017-Sep-25 13:59N 37°07' W 008°32'2 3.1
2017-Sep-25 13:29N 37°06' W 008°31'3 6.4
2017-Sep-25 13:00N 37°04' W 008°28'3 6.6
2017-Sep-25 12:30N 37°03' W 008°24'3 6.8
2017-Sep-25 12:00N 37°02' W 008°21'3 5.8
2017-Sep-25 11:30N 37°00' W 008°17'3 6.2
2017-Sep-25 11:00N 36°60' W 008°13'3 5.9
2017-Sep-25 10:30N 36°59' W 008°10'3 6.0
2017-Sep-25 09:57N 36°58' W 008°06'  
Track history (hours):
 
Tides and Currents Weather Stations Pressure Air Temp Water Temp Dewpoint Dewpoint Depression Visibility Wind Speed Wind Dir Waves Ship Positions

Sy Augusta

Last reported at 2017-Oct-04 07:16 UTC. Time now 2017-Nov-22 15:05 UTC.
Position N 37°07' W 008°32'.
Warning: this ship's position is 49 days out of date.

Length 14 m.

Type: Pleasure craft. MMSI: 244030920.

Date/timePositionNaut miles runAvg speedWind from/ knotsBaromVisibWave heightAir tempDewpointWater temp
2017-Oct-04 07:16N 37°07' W 008°32'0 0.0
2017-Oct-04 06:55N 37°07' W 008°32'0 0.0
2017-Oct-04 06:25N 37°07' W 008°32'  
2017-Sep-27 22:18N 37°07' W 008°32'0 0.0
2017-Sep-27 22:00N 37°07' W 008°32'0 0.0
2017-Sep-27 21:30N 37°07' W 008°32'0 0.0
2017-Sep-27 20:51N 37°07' W 008°32'0 0.0
2017-Sep-27 20:27N 37°07' W 008°32'0 0.0
2017-Sep-27 19:57N 37°07' W 008°32'0 0.0
2017-Sep-27 19:30N 37°07' W 008°32'0 0.0
2017-Sep-27 19:00N 37°07' W 008°32'0 0.0
2017-Sep-27 18:27N 37°07' W 008°32'1 0.0
2017-Sep-25 16:03N 37°07' W 008°31'0 0.0
2017-Sep-25 16:00N 37°07' W 008°31'0 0.0
2017-Sep-25 15:30N 37°07' W 008°31'0 0.0
2017-Sep-25 14:54N 37°07' W 008°31'1 1.8
2017-Sep-25 14:30N 37°07' W 008°32'0 0.2
2017-Sep-25 13:59N 37°07' W 008°32'2 3.1
2017-Sep-25 13:29N 37°06' W 008°31'3 6.4
2017-Sep-25 13:00N 37°04' W 008°28'3 6.6
2017-Sep-25 12:30N 37°03' W 008°24'3 6.8
2017-Sep-25 12:00N 37°02' W 008°21'3 5.8
2017-Sep-25 11:30N 37°00' W 008°17'3 6.2
2017-Sep-25 11:00N 36°60' W 008°13'3 5.9
2017-Sep-25 10:30N 36°59' W 008°10'3 6.0
2017-Sep-25 09:57N 36°58' W 008°06'  

Dump ship's entire track history